EZY76EU LEIB-EGKK
Flight info
| Callsign | EZY76EU |
|---|---|
| Flight time | N/A |
| Altitude | 36000 |
| Route | EPAMA N856 UMURE DCT XIKEN DCT KARES DCT ARBEK DCT REBUL DCT USKAR DCT MOPAS DCT GIROM DCT GONUP DCT MANAK DCT EPAPU DCT RINSO DCT EKRAS DCT UPALO DCT REVTU DCT ODREP UP88 VASUX |
| Aircraft | A320/M-SDE3FGHIRWY/LB1 |
Departure
| Time | N/A |
|---|---|
| Airport | Ibiza Airport (LEIB) |
Arrival
| Time | 2026-05-03 22:02 |
|---|---|
| Airport | London Gatwick Airport (EGKK) |
| Time | Latitude | Longitude | Altitude | Speed | Heading |
|---|---|---|---|---|---|
| 2026-05-03 20:15 | 39.58562 | 1.39061 | 24188 ft | 417 kts | 334° |
| 2026-05-03 20:15 | 39.61378 | 1.37998 | 24622 ft | 425 kts | 344° |
| 2026-05-03 20:15 | 39.64329 | 1.37501 | 25034 ft | 431 kts | 349° |
| 2026-05-03 20:15 | 39.67322 | 1.37109 | 25457 ft | 433 kts | 349° |
| 2026-05-03 20:16 | 39.70326 | 1.36712 | 25869 ft | 435 kts | 349° |
| 2026-05-03 20:16 | 39.73302 | 1.36314 | 26269 ft | 437 kts | 349° |
| 2026-05-03 20:16 | 39.76337 | 1.35913 | 26676 ft | 439 kts | 349° |
| 2026-05-03 20:16 | 39.79385 | 1.35511 | 27075 ft | 442 kts | 349° |
| 2026-05-03 20:17 | 39.82449 | 1.35105 | 27489 ft | 444 kts | 349° |
| 2026-05-03 20:17 | 39.85530 | 1.34693 | 27875 ft | 446 kts | 349° |
| 2026-05-03 20:17 | 39.88626 | 1.34280 | 28264 ft | 448 kts | 349° |
| 2026-05-03 20:17 | 39.91740 | 1.33864 | 28649 ft | 451 kts | 349° |
| 2026-05-03 20:18 | 39.94866 | 1.33446 | 29023 ft | 453 kts | 349° |
| 2026-05-03 20:18 | 39.98006 | 1.33025 | 29384 ft | 455 kts | 349° |
| 2026-05-03 20:18 | 40.01117 | 1.32607 | 29729 ft | 457 kts | 349° |
| 2026-05-03 20:18 | 40.04285 | 1.32183 | 30072 ft | 459 kts | 349° |
| 2026-05-03 20:19 | 40.07476 | 1.31755 | 30340 ft | 462 kts | 349° |
| 2026-05-03 20:19 | 40.10675 | 1.31330 | 30606 ft | 464 kts | 349° |
| 2026-05-03 20:19 | 40.13901 | 1.30901 | 30876 ft | 466 kts | 349° |
| 2026-05-03 20:19 | 40.17130 | 1.30471 | 31144 ft | 468 kts | 349° |
| 2026-05-03 20:20 | 40.20376 | 1.30033 | 31429 ft | 469 kts | 349° |
| 2026-05-03 20:20 | 40.23623 | 1.29594 | 31812 ft | 468 kts | 349° |
| 2026-05-03 20:20 | 40.26819 | 1.29160 | 32196 ft | 468 kts | 349° |
| 2026-05-03 20:20 | 40.30060 | 1.28721 | 32544 ft | 468 kts | 349° |
| 2026-05-03 20:21 | 40.33291 | 1.28284 | 32912 ft | 467 kts | 349° |
| 2026-05-03 20:21 | 40.36527 | 1.27850 | 33305 ft | 467 kts | 349° |
| 2026-05-03 20:21 | 40.39760 | 1.27418 | 33660 ft | 466 kts | 349° |
| 2026-05-03 20:21 | 40.42978 | 1.26987 | 34031 ft | 465 kts | 349° |
| 2026-05-03 20:22 | 40.46201 | 1.26551 | 34358 ft | 465 kts | 349° |
| 2026-05-03 20:22 | 40.49407 | 1.26115 | 34698 ft | 464 kts | 349° |
| 2026-05-03 20:22 | 40.52574 | 1.25683 | 35016 ft | 463 kts | 349° |
| 2026-05-03 20:22 | 40.55771 | 1.25243 | 35328 ft | 462 kts | 348° |
| 2026-05-03 20:23 | 40.58967 | 1.24804 | 35634 ft | 461 kts | 348° |
| 2026-05-03 20:23 | 40.62155 | 1.24369 | 35916 ft | 461 kts | 348° |
| 2026-05-03 20:23 | 40.65341 | 1.23934 | 36004 ft | 459 kts | 348° |
| 2026-05-03 20:24 | 40.71667 | 1.23075 | 36017 ft | 456 kts | 348° |
| 2026-05-03 20:24 | 40.77930 | 1.22220 | 36013 ft | 455 kts | 348° |
| 2026-05-03 20:25 | 40.84227 | 1.21351 | 36016 ft | 455 kts | 348° |
| 2026-05-03 20:25 | 40.90530 | 1.20487 | 36044 ft | 455 kts | 348° |
| 2026-05-03 20:26 | 40.96834 | 1.19621 | 36027 ft | 456 kts | 349° |
| 2026-05-03 20:26 | 41.03110 | 1.18756 | 36020 ft | 457 kts | 348° |
| 2026-05-03 20:27 | 41.09431 | 1.17878 | 36021 ft | 457 kts | 349° |
| 2026-05-03 20:27 | 41.15766 | 1.17006 | 36023 ft | 458 kts | 349° |
| 2026-05-03 20:28 | 41.22132 | 1.16285 | 36022 ft | 460 kts | 351° |
| 2026-05-03 20:28 | 41.28478 | 1.15681 | 36018 ft | 461 kts | 351° |
| 2026-05-03 20:29 | 41.34869 | 1.15050 | 36035 ft | 461 kts | 351° |
| 2026-05-03 20:29 | 41.41269 | 1.14367 | 36053 ft | 461 kts | 350° |
| 2026-05-03 20:30 | 41.47670 | 1.13678 | 36041 ft | 462 kts | 351° |
| 2026-05-03 20:30 | 41.54076 | 1.13005 | 36035 ft | 462 kts | 351° |
| 2026-05-03 20:31 | 41.60441 | 1.12335 | 36042 ft | 462 kts | 351° |
| 2026-05-03 20:31 | 41.66848 | 1.11654 | 36030 ft | 462 kts | 351° |
| 2026-05-03 20:32 | 41.73253 | 1.10977 | 36014 ft | 462 kts | 351° |
| 2026-05-03 20:32 | 41.79665 | 1.10292 | 36017 ft | 462 kts | 351° |
| 2026-05-03 20:33 | 41.86032 | 1.09611 | 36005 ft | 463 kts | 351° |
| 2026-05-03 20:33 | 41.92451 | 1.08924 | 35990 ft | 463 kts | 351° |
| 2026-05-03 20:34 | 41.98871 | 1.08239 | 36005 ft | 463 kts | 351° |
| 2026-05-03 20:34 | 42.05292 | 1.07552 | 36000 ft | 463 kts | 351° |
| 2026-05-03 20:35 | 42.11666 | 1.06871 | 36000 ft | 463 kts | 351° |
| 2026-05-03 20:35 | 42.18084 | 1.06181 | 36008 ft | 463 kts | 351° |
| 2026-05-03 20:36 | 42.24504 | 1.05496 | 36036 ft | 463 kts | 351° |
| 2026-05-03 20:36 | 42.30934 | 1.04799 | 36037 ft | 464 kts | 351° |
| 2026-05-03 20:37 | 42.37362 | 1.04101 | 36037 ft | 464 kts | 351° |
| 2026-05-03 20:37 | 42.43760 | 1.03411 | 36044 ft | 464 kts | 351° |
| 2026-05-03 20:38 | 42.50190 | 1.02712 | 36041 ft | 464 kts | 351° |
| 2026-05-03 20:38 | 42.56618 | 1.02012 | 36022 ft | 463 kts | 351° |
| 2026-05-03 20:39 | 42.63047 | 1.01306 | 36031 ft | 464 kts | 351° |
| 2026-05-03 20:39 | 42.69443 | 1.00607 | 36013 ft | 465 kts | 351° |
| 2026-05-03 20:40 | 42.75887 | 0.99898 | 36007 ft | 464 kts | 350° |
| 2026-05-03 20:40 | 42.82145 | 0.98130 | 35998 ft | 459 kts | 341° |
| 2026-05-03 20:41 | 42.88339 | 0.95990 | 35981 ft | 459 kts | 341° |
| 2026-05-03 20:41 | 42.94519 | 0.93864 | 35978 ft | 459 kts | 341° |
| 2026-05-03 20:42 | 43.00669 | 0.91739 | 35984 ft | 459 kts | 341° |
| 2026-05-03 20:42 | 43.06855 | 0.89598 | 35983 ft | 459 kts | 340° |
| 2026-05-03 20:43 | 43.13050 | 0.87448 | 35967 ft | 459 kts | 341° |
| 2026-05-03 20:43 | 43.19245 | 0.85294 | 35962 ft | 459 kts | 341° |
| 2026-05-03 20:44 | 43.25438 | 0.83131 | 35974 ft | 459 kts | 340° |
| 2026-05-03 20:44 | 43.31585 | 0.80977 | 35970 ft | 459 kts | 340° |
| 2026-05-03 20:45 | 43.37776 | 0.78810 | 35968 ft | 459 kts | 340° |
| 2026-05-03 20:45 | 43.43979 | 0.76642 | 35989 ft | 460 kts | 340° |
| 2026-05-03 20:46 | 43.49914 | 0.73669 | 35994 ft | 452 kts | 330° |
| 2026-05-03 20:46 | 43.55658 | 0.70279 | 35986 ft | 452 kts | 330° |
| 2026-05-03 20:47 | 43.61446 | 0.66853 | 35979 ft | 452 kts | 330° |
| 2026-05-03 20:47 | 43.67233 | 0.63434 | 35968 ft | 453 kts | 330° |
| 2026-05-03 20:48 | 43.73027 | 0.60006 | 35963 ft | 453 kts | 330° |
| 2026-05-03 20:48 | 43.78791 | 0.56591 | 35964 ft | 454 kts | 330° |
| 2026-05-03 20:49 | 43.84602 | 0.53143 | 35975 ft | 454 kts | 330° |
| 2026-05-03 20:49 | 43.90415 | 0.49677 | 35968 ft | 455 kts | 330° |
| 2026-05-03 20:50 | 43.96233 | 0.46207 | 35967 ft | 455 kts | 330° |
| 2026-05-03 20:50 | 44.02012 | 0.42753 | 35964 ft | 456 kts | 330° |
| 2026-05-03 20:51 | 44.07835 | 0.39268 | 35976 ft | 456 kts | 331° |
| 2026-05-03 20:51 | 44.13662 | 0.35765 | 35993 ft | 456 kts | 330° |
| 2026-05-03 20:52 | 44.19482 | 0.32249 | 35982 ft | 456 kts | 330° |
| 2026-05-03 20:52 | 44.25268 | 0.28762 | 35985 ft | 456 kts | 330° |
| 2026-05-03 20:53 | 44.31086 | 0.25245 | 35983 ft | 455 kts | 330° |
| 2026-05-03 20:53 | 44.36893 | 0.21724 | 35984 ft | 455 kts | 330° |
| 2026-05-03 20:54 | 44.42705 | 0.18196 | 36003 ft | 455 kts | 330° |
| 2026-05-03 20:54 | 44.51390 | 0.12917 | 35991 ft | 456 kts | 330° |
| 2026-05-03 20:55 | 44.57212 | 0.09359 | 35989 ft | 456 kts | 330° |
| 2026-05-03 20:55 | 44.63027 | 0.05798 | 36002 ft | 456 kts | 330° |
| 2026-05-03 20:56 | 44.68839 | 0.02238 | 35993 ft | 456 kts | 330° |
| 2026-05-03 20:56 | 44.74657 | -0.01331 | 36000 ft | 456 kts | 330° |
| 2026-05-03 20:57 | 44.80443 | -0.04904 | 35961 ft | 458 kts | 330° |
| 2026-05-03 20:57 | 44.86285 | -0.08513 | 35963 ft | 459 kts | 330° |
| 2026-05-03 20:58 | 44.92146 | -0.12134 | 35961 ft | 460 kts | 330° |
| 2026-05-03 20:58 | 44.98011 | -0.15771 | 35969 ft | 460 kts | 330° |
| 2026-05-03 20:59 | 45.03838 | -0.19389 | 35969 ft | 461 kts | 330° |
| 2026-05-03 20:59 | 45.09715 | -0.23051 | 35973 ft | 462 kts | 330° |
| 2026-05-03 21:00 | 45.13642 | -0.25504 | 35972 ft | 462 kts | 330° |
| 2026-05-03 21:00 | 45.21475 | -0.30400 | 35986 ft | 462 kts | 330° |
| 2026-05-03 21:01 | 45.27317 | -0.34060 | 35970 ft | 463 kts | 330° |
| 2026-05-03 21:01 | 45.33205 | -0.37771 | 35969 ft | 463 kts | 330° |
| 2026-05-03 21:02 | 45.39095 | -0.41486 | 35975 ft | 464 kts | 330° |
| 2026-05-03 21:02 | 45.45000 | -0.45204 | 35973 ft | 464 kts | 330° |
| 2026-05-03 21:03 | 45.50853 | -0.48910 | 35973 ft | 464 kts | 330° |
| 2026-05-03 21:03 | 45.56753 | -0.52658 | 35974 ft | 464 kts | 330° |
| 2026-05-03 21:04 | 45.62652 | -0.56405 | 35987 ft | 464 kts | 330° |
| 2026-05-03 21:04 | 45.68558 | -0.60167 | 35979 ft | 464 kts | 330° |
| 2026-05-03 21:05 | 45.74419 | -0.63900 | 35965 ft | 464 kts | 330° |
| 2026-05-03 21:05 | 45.80315 | -0.67672 | 35973 ft | 464 kts | 329° |
| 2026-05-03 21:06 | 45.86212 | -0.71466 | 35971 ft | 465 kts | 329° |
| 2026-05-03 21:06 | 45.92118 | -0.75268 | 35972 ft | 465 kts | 329° |
| 2026-05-03 21:07 | 45.97978 | -0.79048 | 36002 ft | 465 kts | 329° |
| 2026-05-03 21:07 | 46.03886 | -0.82866 | 35975 ft | 465 kts | 329° |
| 2026-05-03 21:08 | 46.08810 | -0.86045 | 35973 ft | 465 kts | 329° |
| 2026-05-03 21:08 | 46.14703 | -0.89868 | 35969 ft | 465 kts | 329° |
| 2026-05-03 21:09 | 46.21632 | -0.94148 | 35982 ft | 471 kts | 337° |
| 2026-05-03 21:09 | 46.27001 | -0.95942 | 35975 ft | 476 kts | 343° |
| 2026-05-03 21:10 | 46.33463 | -0.97894 | 35971 ft | 476 kts | 342° |
| 2026-05-03 21:10 | 46.41041 | -1.00216 | 35974 ft | 477 kts | 342° |
| 2026-05-03 21:11 | 46.46429 | -1.01883 | 35967 ft | 477 kts | 342° |
| 2026-05-03 21:11 | 46.53975 | -1.04219 | 35972 ft | 477 kts | 342° |
| 2026-05-03 21:12 | 46.60472 | -1.06228 | 35996 ft | 478 kts | 342° |
| 2026-05-03 21:12 | 46.65878 | -1.07898 | 35994 ft | 478 kts | 342° |
| 2026-05-03 21:13 | 46.72377 | -1.09920 | 35988 ft | 478 kts | 342° |
| 2026-05-03 21:13 | 46.79934 | -1.12285 | 35984 ft | 478 kts | 342° |
| 2026-05-03 21:14 | 46.85374 | -1.13987 | 35982 ft | 478 kts | 342° |
| 2026-05-03 21:14 | 46.91839 | -1.16005 | 35979 ft | 478 kts | 342° |
| 2026-05-03 21:15 | 46.98349 | -1.18032 | 35981 ft | 478 kts | 342° |
| 2026-05-03 21:15 | 47.04860 | -1.20075 | 35974 ft | 479 kts | 342° |
| 2026-05-03 21:16 | 47.11382 | -1.22137 | 35970 ft | 479 kts | 342° |
| 2026-05-03 21:16 | 47.17858 | -1.24186 | 36003 ft | 479 kts | 342° |
| 2026-05-03 21:17 | 47.24373 | -1.26254 | 35987 ft | 479 kts | 342° |
| 2026-05-03 21:17 | 47.30891 | -1.28339 | 35975 ft | 479 kts | 342° |
| 2026-05-03 21:18 | 47.37410 | -1.30413 | 35969 ft | 479 kts | 343° |
| 2026-05-03 21:18 | 47.43927 | -1.32487 | 35970 ft | 479 kts | 342° |
| 2026-05-03 21:19 | 47.50390 | -1.34557 | 35971 ft | 479 kts | 343° |
| 2026-05-03 21:19 | 47.56902 | -1.36641 | 35966 ft | 479 kts | 342° |
| 2026-05-03 21:20 | 47.63411 | -1.38735 | 35970 ft | 478 kts | 343° |
| 2026-05-03 21:20 | 47.69906 | -1.40814 | 35964 ft | 479 kts | 345° |
| 2026-05-03 21:21 | 47.76545 | -1.41601 | 35955 ft | 483 kts | 353° |
| 2026-05-03 21:21 | 47.83263 | -1.42097 | 35970 ft | 483 kts | 353° |
| 2026-05-03 21:22 | 47.89977 | -1.42613 | 35972 ft | 483 kts | 353° |
| 2026-05-03 21:22 | 47.96688 | -1.43128 | 35973 ft | 483 kts | 353° |
| 2026-05-03 21:23 | 48.03352 | -1.43632 | 35979 ft | 483 kts | 353° |
| 2026-05-03 21:23 | 48.10056 | -1.44126 | 35975 ft | 483 kts | 354° |
| 2026-05-03 21:24 | 48.16765 | -1.44595 | 35974 ft | 483 kts | 354° |
| 2026-05-03 21:24 | 48.23478 | -1.45068 | 35985 ft | 483 kts | 354° |
| 2026-05-03 21:25 | 48.30148 | -1.45542 | 35973 ft | 483 kts | 354° |
| 2026-05-03 21:25 | 48.36857 | -1.46026 | 35966 ft | 483 kts | 354° |
| 2026-05-03 21:26 | 48.43564 | -1.46519 | 35982 ft | 483 kts | 354° |
| 2026-05-03 21:26 | 48.50276 | -1.47015 | 35977 ft | 483 kts | 354° |
| 2026-05-03 21:27 | 48.56989 | -1.47502 | 35975 ft | 483 kts | 354° |
| 2026-05-03 21:27 | 48.63654 | -1.47978 | 35973 ft | 483 kts | 354° |
| 2026-05-03 21:28 | 48.70362 | -1.48470 | 35981 ft | 482 kts | 354° |
| 2026-05-03 21:28 | 48.77059 | -1.49041 | 35977 ft | 480 kts | 349° |
| 2026-05-03 21:29 | 48.80298 | -1.50101 | 35977 ft | 474 kts | 338° |
| 2026-05-03 21:29 | 48.83307 | -1.52009 | 35972 ft | 467 kts | 327° |
| 2026-05-03 21:29 | 48.86014 | -1.54652 | 35969 ft | 459 kts | 316° |
| 2026-05-03 21:29 | 48.88314 | -1.57876 | 35962 ft | 452 kts | 306° |
| 2026-05-03 21:30 | 48.91724 | -1.65690 | 35953 ft | 443 kts | 296° |
| 2026-05-03 21:30 | 48.93678 | -1.69363 | 35950 ft | 454 kts | 313° |
| 2026-05-03 21:30 | 48.96275 | -1.72170 | 35947 ft | 464 kts | 328° |
| 2026-05-03 21:31 | 48.99294 | -1.73976 | 35948 ft | 472 kts | 342° |
| 2026-05-03 21:31 | 49.02559 | -1.74708 | 35943 ft | 478 kts | 356° |
| 2026-05-03 21:31 | 49.09175 | -1.74541 | 35950 ft | 480 kts | 359° |
| 2026-05-03 21:32 | 49.15853 | -1.74274 | 35950 ft | 480 kts | 359° |
| 2026-05-03 21:32 | 49.22534 | -1.73999 | 35951 ft | 480 kts | 359° |
| 2026-05-03 21:33 | 49.29209 | -1.73730 | 35958 ft | 480 kts | 359° |
| 2026-05-03 21:33 | 49.35876 | -1.73479 | 35963 ft | 480 kts | 359° |
| 2026-05-03 21:34 | 49.42531 | -1.73232 | 35964 ft | 479 kts | 359° |
| 2026-05-03 21:34 | 49.49194 | -1.72978 | 35966 ft | 479 kts | 359° |
| 2026-05-03 21:35 | 49.55814 | -1.72715 | 35978 ft | 478 kts | 359° |
| 2026-05-03 21:35 | 49.62385 | -1.71106 | 35979 ft | 481 kts | 17° |
| 2026-05-03 21:36 | 49.68696 | -1.67636 | 35977 ft | 481 kts | 19° |
| 2026-05-03 21:36 | 49.75012 | -1.64130 | 35177 ft | 488 kts | 19° |
| 2026-05-03 21:37 | 49.78246 | -1.62340 | 34108 ft | 498 kts | 19° |
| 2026-05-03 21:37 | 49.81473 | -1.60554 | 33191 ft | 500 kts | 19° |
| 2026-05-03 21:37 | 49.84733 | -1.58741 | 32621 ft | 494 kts | 19° |
| 2026-05-03 21:37 | 49.87952 | -1.56948 | 31942 ft | 491 kts | 19° |
| 2026-05-03 21:38 | 49.91156 | -1.55160 | 31279 ft | 487 kts | 19° |
| 2026-05-03 21:38 | 49.94333 | -1.53387 | 30620 ft | 484 kts | 19° |
| 2026-05-03 21:38 | 49.97485 | -1.51626 | 29987 ft | 480 kts | 19° |
| 2026-05-03 21:38 | 50.00610 | -1.49883 | 29343 ft | 474 kts | 18° |
| 2026-05-03 21:39 | 50.03674 | -1.48267 | 28780 ft | 467 kts | 17° |
| 2026-05-03 21:39 | 50.06755 | -1.46750 | 28206 ft | 461 kts | 16° |
| 2026-05-03 21:39 | 50.09804 | -1.45305 | 27644 ft | 456 kts | 15° |
| 2026-05-03 21:39 | 50.12821 | -1.43891 | 27096 ft | 450 kts | 15° |
| 2026-05-03 21:40 | 50.15796 | -1.42485 | 26572 ft | 444 kts | 15° |
| 2026-05-03 21:40 | 50.18729 | -1.41078 | 26064 ft | 439 kts | 16° |
| 2026-05-03 21:40 | 50.21624 | -1.39667 | 25571 ft | 433 kts | 16° |
| 2026-05-03 21:40 | 50.24478 | -1.38262 | 25068 ft | 428 kts | 16° |
| 2026-05-03 21:41 | 50.27260 | -1.36883 | 24596 ft | 422 kts | 16° |
| 2026-05-03 21:41 | 50.30043 | -1.35501 | 24124 ft | 417 kts | 16° |
| 2026-05-03 21:41 | 50.32793 | -1.34137 | 23634 ft | 413 kts | 16° |
| 2026-05-03 21:41 | 50.35521 | -1.32789 | 23101 ft | 409 kts | 16° |
| 2026-05-03 21:42 | 50.38222 | -1.31455 | 22587 ft | 404 kts | 16° |
| 2026-05-03 21:42 | 50.40886 | -1.30141 | 22124 ft | 400 kts | 16° |
| 2026-05-03 21:42 | 50.43528 | -1.28829 | 21630 ft | 396 kts | 16° |
| 2026-05-03 21:42 | 50.46148 | -1.27523 | 21144 ft | 393 kts | 16° |
| 2026-05-03 21:43 | 50.48693 | -1.26159 | 20644 ft | 391 kts | 22° |
| 2026-05-03 21:43 | 50.51090 | -1.24178 | 20167 ft | 389 kts | 33° |
| 2026-05-03 21:43 | 50.53220 | -1.21594 | 19673 ft | 386 kts | 40° |
| 2026-05-03 21:43 | 50.55272 | -1.18883 | 19184 ft | 384 kts | 40° |
| 2026-05-03 21:44 | 50.57318 | -1.16193 | 18702 ft | 383 kts | 40° |
| 2026-05-03 21:44 | 50.59359 | -1.13514 | 18216 ft | 381 kts | 40° |
| 2026-05-03 21:44 | 50.61386 | -1.10846 | 17710 ft | 379 kts | 40° |
| 2026-05-03 21:44 | 50.63402 | -1.08191 | 17230 ft | 376 kts | 40° |
| 2026-05-03 21:45 | 50.65387 | -1.05543 | 16772 ft | 372 kts | 43° |
| 2026-05-03 21:45 | 50.67099 | -1.02589 | 16318 ft | 368 kts | 52° |
| 2026-05-03 21:45 | 50.68712 | -0.99478 | 15866 ft | 365 kts | 52° |
| 2026-05-03 21:45 | 50.70315 | -0.96387 | 15416 ft | 363 kts | 52° |
| 2026-05-03 21:46 | 50.71909 | -0.93316 | 14951 ft | 360 kts | 52° |
| 2026-05-03 21:46 | 50.73487 | -0.90269 | 14521 ft | 357 kts | 52° |
| 2026-05-03 21:46 | 50.75057 | -0.87243 | 14078 ft | 355 kts | 52° |
| 2026-05-03 21:46 | 50.76617 | -0.84224 | 13615 ft | 354 kts | 52° |
| 2026-05-03 21:47 | 50.78165 | -0.81220 | 13151 ft | 351 kts | 52° |
| 2026-05-03 21:47 | 50.79663 | -0.78301 | 12912 ft | 341 kts | 53° |
| 2026-05-03 21:47 | 50.80855 | -0.75192 | 12928 ft | 323 kts | 68° |
| 2026-05-03 21:47 | 50.81536 | -0.71888 | 12935 ft | 313 kts | 81° |
| 2026-05-03 21:48 | 50.81926 | -0.68522 | 12936 ft | 311 kts | 82° |
| 2026-05-03 21:48 | 50.82316 | -0.65161 | 12563 ft | 311 kts | 82° |
| 2026-05-03 21:48 | 50.82710 | -0.61790 | 12160 ft | 311 kts | 81° |
| 2026-05-03 21:48 | 50.83110 | -0.58413 | 11564 ft | 317 kts | 81° |
| 2026-05-03 21:49 | 50.83523 | -0.54952 | 11017 ft | 321 kts | 81° |
| 2026-05-03 21:49 | 50.83933 | -0.51490 | 10656 ft | 318 kts | 81° |
| 2026-05-03 21:49 | 50.84328 | -0.48121 | 10530 ft | 306 kts | 81° |
| 2026-05-03 21:49 | 50.84702 | -0.44894 | 10317 ft | 299 kts | 81° |
| 2026-05-03 21:50 | 50.85072 | -0.41668 | 9996 ft | 297 kts | 82° |
| 2026-05-03 21:50 | 50.85435 | -0.38463 | 9637 ft | 295 kts | 82° |
| 2026-05-03 21:50 | 50.85793 | -0.35270 | 9261 ft | 293 kts | 82° |
| 2026-05-03 21:50 | 50.86147 | -0.32102 | 8875 ft | 291 kts | 82° |
| 2026-05-03 21:51 | 50.86499 | -0.28956 | 8494 ft | 289 kts | 81° |
| 2026-05-03 21:51 | 50.86850 | -0.25830 | 8115 ft | 287 kts | 81° |
| 2026-05-03 21:51 | 50.87199 | -0.22730 | 7739 ft | 285 kts | 78° |
| 2026-05-03 21:51 | 50.87543 | -0.19693 | 7367 ft | 283 kts | 81° |
| 2026-05-03 21:52 | 50.87883 | -0.16638 | 7056 ft | 278 kts | 81° |
| 2026-05-03 21:52 | 50.88208 | -0.13692 | 7021 ft | 267 kts | 81° |
| 2026-05-03 21:52 | 50.88536 | -0.10719 | 7019 ft | 279 kts | 81° |
| 2026-05-03 21:52 | 50.89100 | -0.07774 | 7017 ft | 283 kts | 61° |
| 2026-05-03 21:53 | 50.90321 | -0.05340 | 7023 ft | 284 kts | 44° |
| 2026-05-03 21:53 | 50.91749 | -0.03173 | 7022 ft | 285 kts | 44° |
| 2026-05-03 21:53 | 50.93183 | -0.01029 | 6774 ft | 282 kts | 43° |
| 2026-05-03 21:53 | 50.94613 | 0.01093 | 6365 ft | 280 kts | 43° |
| 2026-05-03 21:54 | 50.96015 | 0.03168 | 5969 ft | 279 kts | 43° |
| 2026-05-03 21:54 | 50.97429 | 0.05258 | 5566 ft | 276 kts | 43° |
| 2026-05-03 21:54 | 50.98829 | 0.07329 | 5152 ft | 274 kts | 43° |
| 2026-05-03 21:54 | 51.00225 | 0.09371 | 4771 ft | 272 kts | 40° |
| 2026-05-03 21:55 | 51.01814 | 0.10957 | 4359 ft | 269 kts | 23° |
| 2026-05-03 21:55 | 51.03599 | 0.11761 | 4074 ft | 266 kts | 7° |
| 2026-05-03 21:55 | 51.05446 | 0.12046 | 4025 ft | 267 kts | 2° |
| 2026-05-03 21:55 | 51.07290 | 0.12177 | 3604 ft | 265 kts | 1° |
| 2026-05-03 21:56 | 51.09109 | 0.12287 | 3171 ft | 264 kts | 1° |
| 2026-05-03 21:56 | 51.10937 | 0.12399 | 2752 ft | 262 kts | 1° |
| 2026-05-03 21:56 | 51.12755 | 0.12518 | 2348 ft | 260 kts | 1° |
| 2026-05-03 21:56 | 51.14543 | 0.12442 | 2084 ft | 255 kts | 345° |
| 2026-05-03 21:57 | 51.16152 | 0.11307 | 2075 ft | 254 kts | 323° |
| 2026-05-03 21:57 | 51.17349 | 0.09318 | 2067 ft | 242 kts | 301° |
| 2026-05-03 21:57 | 51.17957 | 0.06949 | 2066 ft | 222 kts | 280° |
| 2026-05-03 21:57 | 51.18017 | 0.04583 | 2057 ft | 207 kts | 262° |
| 2026-05-03 21:58 | 51.17737 | 0.02412 | 2059 ft | 193 kts | 258° |
| 2026-05-03 21:58 | 51.17468 | 0.00425 | 2061 ft | 174 kts | 258° |
| 2026-05-03 21:58 | 51.17227 | -0.01346 | 2009 ft | 158 kts | 257° |
| 2026-05-03 21:58 | 51.17008 | -0.02962 | 1975 ft | 142 kts | 257° |
| 2026-05-03 21:59 | 51.16804 | -0.04465 | 1828 ft | 136 kts | 257° |
| 2026-05-03 21:59 | 51.16606 | -0.05920 | 1671 ft | 133 kts | 256° |
| 2026-05-03 21:59 | 51.16412 | -0.07358 | 1488 ft | 132 kts | 258° |
| 2026-05-03 21:59 | 51.16216 | -0.08784 | 1307 ft | 132 kts | 258° |
| 2026-05-03 22:00 | 51.16027 | -0.10206 | 1121 ft | 131 kts | 257° |
| 2026-05-03 22:00 | 51.15835 | -0.11629 | 961 ft | 131 kts | 256° |
| 2026-05-03 22:00 | 51.15639 | -0.13049 | 782 ft | 132 kts | 256° |
| 2026-05-03 22:00 | 51.15443 | -0.14467 | 623 ft | 131 kts | 256° |
| 2026-05-03 22:01 | 51.15250 | -0.15884 | 419 ft | 131 kts | 256° |
| 2026-05-03 22:01 | 51.15058 | -0.17278 | 242 ft | 130 kts | 255° |
| 2026-05-03 22:01 | 51.14877 | -0.18570 | 208 ft | 102 kts | 258° |
| 2026-05-03 22:01 | 51.14756 | -0.19483 | 210 ft | 70 kts | 259° |
| 2026-05-03 22:02 | 51.14702 | -0.19991 | 213 ft | 30 kts | 287° |
| 2026-05-03 22:02 | 51.14743 | -0.20291 | 214 ft | 19 kts | 282° |
| 2026-05-03 22:02 | 51.14785 | -0.20418 | 204 ft | 7 kts | 1° |
| 2026-05-03 22:02 | 51.14816 | -0.20357 | 213 ft | 8 kts | 76° |
| 2026-05-03 22:03 | 51.14827 | -0.20274 | 203 ft | 7 kts | 78° |
| 2026-05-03 22:03 | 51.14837 | -0.20197 | 203 ft | 9 kts | 77° |
| 2026-05-03 22:03 | 51.14864 | -0.20010 | 205 ft | 21 kts | 78° |
| 2026-05-03 22:03 | 51.14895 | -0.19775 | 207 ft | 22 kts | 78° |
| 2026-05-03 22:04 | 51.14929 | -0.19519 | 217 ft | 25 kts | 78° |
| 2026-05-03 22:04 | 51.14965 | -0.19237 | 208 ft | 27 kts | 79° |
| 2026-05-03 22:04 | 51.15004 | -0.18959 | 213 ft | 25 kts | 72° |
| 2026-05-03 22:04 | 51.15043 | -0.18701 | 214 ft | 23 kts | 77° |
| 2026-05-03 22:05 | 51.15079 | -0.18442 | 206 ft | 25 kts | 78° |
| 2026-05-03 22:05 | 51.15109 | -0.18237 | 207 ft | 13 kts | 71° |
| 2026-05-03 22:05 | 51.15178 | -0.18207 | 212 ft | 11 kts | 348° |
| 2026-05-03 22:05 | 51.15249 | -0.18231 | 212 ft | 10 kts | 348° |
| 2026-05-03 22:06 | 51.15351 | -0.18266 | 208 ft | 19 kts | 348° |
| 2026-05-03 22:06 | 51.15475 | -0.18311 | 205 ft | 16 kts | 347° |
| 2026-05-03 22:06 | 51.15576 | -0.18345 | 214 ft | 13 kts | 348° |
| 2026-05-03 22:06 | 51.15647 | -0.18327 | 206 ft | 10 kts | 55° |
| 2026-05-03 22:07 | 51.15665 | -0.18219 | 211 ft | 12 kts | 78° |
| 2026-05-03 22:07 | 51.15686 | -0.18063 | 205 ft | 12 kts | 77° |
| 2026-05-03 22:07 | 51.15701 | -0.17949 | 205 ft | 9 kts | 78° |
| 2026-05-03 22:07 | 51.15706 | -0.17890 | 209 ft | 3 kts | 111° |
| 2026-05-03 22:08 | 51.15689 | -0.17872 | 213 ft | 3 kts | 155° |
| 2026-05-03 22:08 | 51.15669 | -0.17864 | 210 ft | 3 kts | 167° |
| 2026-05-03 22:08 | 51.15654 | -0.17859 | 215 ft | 2 kts | 167° |
| 2026-05-03 22:08 | 51.15644 | -0.17855 | 213 ft | 1 kts | 168° |
| 2026-05-03 22:09 | 51.15643 | -0.17855 | 205 ft | 0 kts | 168° |